Home > Products > Valid Products > MTR

000
SAUS41 KLWX 220200
MTRRYT
METAR KRYT 220153Z AUTO VRB06KT 10SM SCT110 22/15 A2972 RMK AO2
SLP054 T02170150 $





000
SAUS41 KLWX 220159 COR
MTRDMH
METAR KDMH 220154Z AUTO 24/18 A2967 RMK AO1 SLP048 T02440183





000
SAUS41 KLWX 220155
MTRNAK
METAR KNAK 220154Z AUTO 30010G17KT 10SM FEW055 SCT070 BKN085 22/19
A2968 RMK AO2 RAB18E39 SLP051 P0006 T02220189 $





000
SAUS41 KLWX 220100
MTRRYT
METAR KRYT 220053Z AUTO VRB03KT 10SM FEW075 20/16 A2968 RMK AO2
SLP044 T02000161 $





000
SAUS41 KLWX 220059 COR
MTRDMH
METAR KDMH 220054Z AUTO 24/19 A2966 RMK AO1 SLP042 T02390189





000
SAUS41 KLWX 220055
MTRNAK
METAR KNAK 220054Z AUTO 00000KT 10SM FEW075 23/18 A2966 RMK AO2
SLP044 T02280178 $





000
SAUS41 KLWX 220000
MTRRYT
METAR KRYT 212353Z AUTO 00000KT 10SM FEW031 SCT095 BKN110 21/19
A2969 RMK AO2 RAB39E51 SLP047 P0001 60008 T02060189 10267 20206
53009 $





000
SAUS41 KLWX 212359 COR
MTRDMH
METAR KDMH 212354Z AUTO 24/18 A2966 RMK AO1 SLP043 T02440183 10278
20244 53002





000
SAUS41 KLWX 212355
MTRNAK
METAR KNAK 212354Z AUTO 15004KT 10SM 23/18 A2966 RMK AO2 SLP044
T02280178 10250 20228 $





000
SAUS41 KLWX 212300
MTRRYT
METAR KRYT 212253Z AUTO 00000KT 4SM BR FEW050 21/20 A2967 RMK AO2
SLP039 T02110200 $





000
SAUS41 KLWX 212259 COR
MTRDMH
METAR KDMH 212254Z AUTO 26/18 A2966 RMK AO1 SLP042 T02560183





000
SAUS41 KLWX 212255
MTRNAK
METAR KNAK 212254Z AUTO 18003KT 10SM CLR 23/17 A2966 RMK AO2 SLP045
T02330172 $





000
SAUS41 KLWX 212200
MTRRYT
METAR KRYT 212153Z AUTO 00000KT 8SM FEW046 SCT060 BKN110 22/20 A2965
RMK AO2 SLP034 T02170200 $





000
SAUS41 KLWX 212159 COR
MTRDMH
METAR KDMH 212154Z AUTO 26/17 A2965 RMK AO1 SLP039 T02560172





000
SAUS41 KLWX 212156
MTRNAK
METAR KNAK 212154Z AUTO 16007KT 10SM CLR 24/17 A2965 RMK AO2 SLP041
T02440172 $





000
SAUS41 KLWX 212100
MTRRYT
METAR KRYT 212053Z AUTO 00000KT 5SM BR FEW047 BKN070 OVC100 22/21
A2966 RMK AO2 RAB25E49 SLP036 P0007 60007 T02170206 56022 $





000
SAUS41 KLWX 212059 COR
MTRDMH
METAR KDMH 212054Z AUTO 26/16 A2965 RMK AO1 SLP041 T02610156 56028





000
SAUS41 KLWX 212055
MTRNAK
METAR KNAK 212054Z AUTO 13009KT 10SM CLR 24/17 A2966 RMK AO2 SLP046
T02390172 56028 $





000
SAUS41 KLWX 212052
MTRRYT
SPECI KRYT 212046Z AUTO 00000KT 3SM -RA BR FEW043 BKN070 OVC110
22/20 A2966 RMK AO2 RAB25 P0007 $





000
SAUS41 KLWX 212037
MTRRYT
SPECI KRYT 212036Z AUTO 00000KT 1 3/4SM RA SCT047 BKN060 OVC095
23/19 A2967 RMK AO2 VIS 1V3 RAB25 P0006 $





000
SAUS41 KLWX 212000
MTRRYT
METAR KRYT 211953Z AUTO VRB04KT 10SM FEW060 27/17 A2966 RMK AO2
SLP035 T02670172 $





000
SAUS41 KLWX 211959 COR
MTRDMH
METAR KDMH 211954Z AUTO 27/16 A2967 RMK AO1 SLP047 T02670161





000
SAUS41 KLWX 211955
MTRNAK
METAR KNAK 211954Z AUTO 12008KT 10SM CLR 23/19 A2968 RMK AO2 SLP052
T02330189 $





000
SAUS41 KLWX 211900
MTRRYT
METAR KRYT 211853Z AUTO VRB05KT 10SM SCT055 27/18 A2969 RMK AO2
SLP043 T02670183 $





000
SAUS41 KLWX 211859 COR
MTRDMH
METAR KDMH 211854Z AUTO 27/17 A2969 RMK AO1 SLP055 T02670167





000
SAUS41 KLWX 211855
MTRNAK
METAR KNAK 211854Z AUTO 13004KT 10SM CLR 23/19 A2970 RMK AO2 SLP059
T02330189 $





000
SAUS41 KLWX 211800
MTRRYT
METAR KRYT 211753Z AUTO 25003KT 10SM BKN044 27/18 A2972 RMK AO2
SLP055 T02670178 10267 20133 58036 $





000
SAUS41 KLWX 211759 COR
MTRDMH
METAR KDMH 211754Z AUTO 27/16 A2974 RMK AO1 SLP069 T02670161 10267
20189 58041





000
SAUS41 KLWX 211755
MTRNAK
METAR KNAK 211754Z AUTO 13010KT 10SM CLR 24/19 A2974 RMK AO2 SLP074
T02390194 10256 20189 58033 $





000
SAUS41 KLWX 211700
MTRRYT
METAR KRYT 211653Z AUTO 03003KT 10SM CLR 24/17 A2978 RMK AO2 SLP075
T02440172 $





000
SAUS41 KLWX 211659 COR
MTRDMH
METAR KDMH 211654Z AUTO 25/17 A2978 RMK AO1 SLP084 T02500167





000
SAUS41 KLWX 211656
MTRNAK
METAR KNAK 211654Z AUTO 32005KT 10SM CLR 24/17 A2978 RMK AO2 SLP085
T02390172 $





000
SAUS41 KLWX 211600
MTRRYT
METAR KRYT 211553Z AUTO VRB03KT 10SM CLR 23/17 A2981 RMK AO2 SLP084
T02330167 $





000
SAUS41 KLWX 211559 COR
MTRDMH
METAR KDMH 211554Z AUTO 23/16 A2983 RMK AO1 SLP100 T02280161





000
SAUS41 KLWX 211555
MTRNAK
METAR KNAK 211554Z AUTO 00000KT 10SM CLR 23/18 A2982 RMK AO2 SLP099
T02280178 $





000
SAUS41 KLWX 211500
MTRRYT
METAR KRYT 211453Z AUTO 00000KT 10SM CLR 22/17 A2983 RMK AO2 SLP094
T02220167 58015 $





000
SAUS41 KLWX 211459 COR
MTRDMH
METAR KDMH 211454Z AUTO 21/17 A2986 RMK AO1 SLP110 T02060167 58014





000
SAUS41 KLWX 211456
MTRNAK
METAR KNAK 211454Z AUTO 00000KT 10SM 22/17 A2984 RMK AO2 SLP107
T02170172 58015 $





000
SAUS41 KLWX 211417
MTRNAK
SPECI KNAK 211415Z AUTO 36004KT 10SM 21/17 A2986 RMK AO2 T02060172 $





000
SAUS41 KLWX 211400
MTRRYT
METAR KRYT 211353Z AUTO 00000KT 10SM BKN049 19/16 A2987 RMK AO2
SLP108 T01890156 $





000
SAUS41 KLWX 211359 COR
MTRDMH
METAR KDMH 211354Z AUTO 19/17 A2988 RMK AO1 SLP118 T01940167





000
SAUS41 KLWX 211355
MTRNAK
METAR KNAK 211354Z AUTO 05005KT 10SM BKN013 20/17 A2986 RMK AO2
SLP114 T02000172 $





000
SAUS41 KLWX 211300
MTRRYT
METAR KRYT 211253Z AUTO 00000KT 10SM CLR 16/14 A2987 RMK AO2 SLP111
T01610139 $





000
SAUS41 KLWX 211259 COR
MTRDMH
METAR KDMH 211254Z AUTO 19/17 A2989 RMK AO1 SLP121 T01940167





000
SAUS41 KLWX 211255
MTRNAK
METAR KNAK 211254Z AUTO 36004KT 5SM BR OVC012 19/18 A2988 RMK AO2
SLP119 T01940178 $





000
SAUS41 KLWX 211200
MTRRYT
METAR KRYT 211153Z AUTO 00000KT 7SM CLR 14/12 A2988 RMK AO2 SLP112
T01390122 10167 20128 58010 $





000
SAUS41 KLWX 211159 COR
MTRDMH
METAR KDMH 211154Z AUTO 19/17 A2990 RMK AO1 SLP124 T01890172 10200
20183 56008





000
SAUS41 KLWX 211155
MTRNAK
METAR KNAK 211154Z AUTO 01003KT 6SM BR BKN010 19/17 A2989 RMK AO2
SLP122 T01890172 10200 20172 56005 $





000
SAUS41 KLWX 211100
MTRRYT
METAR KRYT 211053Z AUTO 00000KT 9SM CLR 14/13 A2989 RMK AO2 SLP115
T01440133 $





000
SAUS41 KLWX 211059 COR
MTRDMH
METAR KDMH 211054Z AUTO 19/18 A2991 RMK AO1 SLP127 T01890178





000
SAUS41 KLWX 211055
MTRNAK
METAR KNAK 211054Z AUTO 35003KT 9SM SCT013 19/17 A2989 RMK AO2
SLP123 T01890172 $





000
SAUS41 KLWX 211003
MTRNAK
SPECI KNAK 211002Z AUTO 31003KT 6SM BR BKN011 18/17 A2988 RMK AO2
T01830167 $





000
SAUS41 KLWX 211000
MTRRYT
METAR KRYT 210953Z AUTO 00000KT 5SM BR CLR 13/12 A2992 RMK AO2
SLP123 T01330122 $





000
SAUS41 KLWX 210959 COR
MTRDMH
METAR KDMH 210954Z AUTO 18/17 A2990 RMK AO1 SLP125 T01830172





000
SAUS41 KLWX 210956
MTRNAK
METAR KNAK 210954Z AUTO 00000KT 6SM BR SCT011 17/16 A2989 RMK AO2
SLP122 T01720161 $





000
SAUS41 KLWX 210900
MTRRYT
METAR KRYT 210853Z AUTO 00000KT 6SM BR CLR 14/13 A2991 RMK AO2
SLP120 T01390128 56029 $





000
SAUS41 KLWX 210859 COR
MTRDMH
METAR KDMH 210854Z AUTO 18/17 A2992 RMK AO1 SLP133 T01830172 56027





000
SAUS41 KLWX 210855
MTRNAK
METAR KNAK 210854Z AUTO 30003KT 6SM BR CLR 18/17 A2990 RMK AO2
SLP127 T01830172 56034 $





000
SAUS41 KLWX 210800
MTRRYT
METAR KRYT 210753Z AUTO 00000KT 5SM BR CLR 14/13 A2992 RMK AO2
SLP124 T01390128 $





000
SAUS41 KLWX 210759 COR
MTRDMH
METAR KDMH 210754Z AUTO 19/17 A2994 RMK AO1 SLP136 T01890172





000
SAUS41 KLWX 210756
MTRNAK
METAR KNAK 210754Z AUTO 31003KT 8SM CLR 18/17 A2993 RMK AO2 SLP135
T01830172 $





000
SAUS41 KLWX 210700
MTRRYT
METAR KRYT 210653Z AUTO 00000KT 9SM CLR 15/14 A2995 RMK AO2 SLP132
T01500139 $





000
SAUS41 KLWX 210659 COR
MTRDMH
METAR KDMH 210654Z AUTO 19/17 A2996 RMK AO1 SLP145 T01940167





000
SAUS41 KLWX 210655
MTRNAK
METAR KNAK 210654Z AUTO 00000KT 10SM CLR 19/17 A2995 RMK AO2 SLP145
T01890167 $





000
SAUS41 KLWX 210600
MTRRYT
METAR KRYT 210553Z AUTO 00000KT 10SM CLR 15/14 A3000 RMK AO2 SLP150
T01500139 10194 20144 58027 $





000
SAUS41 KLWX 210559 COR
MTRDMH
METAR KDMH 210554Z AUTO 20/17 A3000 RMK AO1 SLP160 T02000172 10239
20200 58017





000
SAUS41 KLWX 210556
MTRNAK
METAR KNAK 210554Z AUTO 33006KT 8SM CLR 19/18 A3000 RMK AO2 SLP161
T01940178 10222 20189 58016 $





000
SAUS41 KLWX 210500
MTRRYT
METAR KRYT 210453Z AUTO 00000KT 10SM CLR 16/14 A3003 RMK AO2 SLP162
T01610139 402500144 $





000
SAUS41 KLWX 210459 COR
MTRDMH
METAR KDMH 210454Z AUTO 21/16 A3004 RMK AO1 SLP171 T02060161
402610172





000
SAUS41 KLWX 210455
MTRNAK
METAR KNAK 210454Z AUTO 00000KT 10SM CLR 19/18 A3002 RMK AO2 SLP168
T01940178 402500178 $





000
SAUS41 KLWX 210400
MTRRYT
METAR KRYT 210353Z AUTO 00000KT 9SM FEW080 15/13 A3006 RMK AO2
SLP173 T01500133 $





000
SAUS41 KLWX 210359 COR
MTRDMH
METAR KDMH 210354Z AUTO 21/17 A3006 RMK AO1 SLP178 T02110167





000
SAUS41 KLWX 210356
MTRNAK
METAR KNAK 210354Z AUTO 00000KT 10SM CLR 20/17 A3005 RMK AO2 SLP177
T02000172 $





000
SAUS41 KLWX 210300
MTRRYT
METAR KRYT 210253Z AUTO 00000KT 10SM CLR 17/13 A3008 RMK AO2 SLP179
T01670133 53010 $





000
SAUS41 KLWX 210259 COR
MTRDMH
METAR KDMH 210254Z AUTO 22/17 A3005 RMK AO1 SLP177 T02220172 56007





000
SAUS41 KLWX 210255
MTRNAK
METAR KNAK 210254Z AUTO 14008KT 10SM CLR 22/17 A3005 RMK AO2 SLP177
T02170172 58009 $





000
SAUS41 KLWX 210200
MTRRYT
METAR KRYT 210153Z AUTO 00000KT 10SM CLR 17/13 A3006 RMK AO2 SLP173
T01670133 $





000
SAUS41 KLWX 210159 COR
MTRDMH
METAR KDMH 210154Z AUTO 23/17 A3005 RMK AO1 SLP177 T02280172





000
SAUS41 KLWX 210155
MTRNAK
METAR KNAK 210154Z AUTO 14009KT 10SM 21/18 A3005 RMK AO2 SLP178
T02110178 $





000
SAUS41 KLWX 210100
MTRRYT
METAR KRYT 210053Z AUTO 00000KT 10SM CLR 18/13 A3006 RMK AO2 SLP173
T01780133 $





000
SAUS41 KLWX 210059 COR
MTRDMH
METAR KDMH 210054Z AUTO 23/17 A3007 RMK AO1 SLP181 T02280172





000
SAUS41 KLWX 210055
MTRNAK
METAR KNAK 210054Z AUTO 00000KT 10SM SCT043 21/18 A3008 RMK AO2
SLP186 T02110178 $





000
SAUS41 KLWX 210000
MTRRYT
METAR KRYT 202353Z AUTO 00000KT 10SM CLR 19/14 A3005 RMK AO2 SLP169
T01890139 10250 20183 56010 $





000
SAUS41 KLWX 202359 COR
MTRDMH
METAR KDMH 202354Z AUTO 24/16 A3008 RMK AO1 SLP184 T02390161 10261
20239 56009





000
SAUS41 KLWX 202355
MTRNAK
METAR KNAK 202354Z AUTO 00000KT 10SM CLR 22/17 A3007 RMK AO2 SLP186
T02170172 10250 20217 55009 $





000
SAUS41 KLWX 202300
MTRRYT
METAR KRYT 202253Z AUTO 00000KT 10SM CLR 21/14 A3005 RMK AO2 SLP170
T02110144 $





000
SAUS41 KLWX 202259 COR
MTRDMH
METAR KDMH 202254Z AUTO 24/14 A3008 RMK AO1 SLP184 T02440144





000
SAUS41 KLWX 202255
MTRNAK
METAR KNAK 202254Z AUTO 18004KT 10SM CLR 23/14 A3007 RMK AO2 SLP184
T02280144 $





000
SAUS41 KLWX 202217
MTRRYT
SPECI KRYT 202213Z AUTO 00000KT 10SM FEW002 24/13 A3007 RMK AO2 $





000
SAUS41 KLWX 202200
MTRRYT
METAR KRYT 202153Z AUTO 00000KT 10SM CLR 24/14 A3007 RMK AO2 SLP173
T02440139 $





000
SAUS41 KLWX 202159 COR
MTRDMH
METAR KDMH 202154Z AUTO 26/13 A3009 RMK AO1 SLP190 T02560133





000
SAUS41 KLWX 202155
MTRNAK
METAR KNAK 202154Z AUTO 18007KT 10SM CLR 24/14 A3008 RMK AO2 SLP189
T02440144 $





000
SAUS41 KLWX 202100
MTRRYT
METAR KRYT 202053Z AUTO VRB03KT 10SM CLR 24/14 A3008 RMK AO2 SLP177
T02440139 58022 $





000
SAUS41 KLWX 202059 COR
MTRDMH
METAR KDMH 202054Z AUTO 26/14 A3010 RMK AO1 SLP193 T02610139 56024





000
SAUS41 KLWX 202055
MTRNAK
METAR KNAK 202054Z AUTO 17005KT 10SM CLR 24/16 A3010 RMK AO2 SLP195
T02440156 56024 $





000
SAUS41 KLWX 202000
MTRRYT
METAR KRYT 201953Z AUTO 25007KT 10SM CLR 24/14 A3010 RMK AO2 SLP185
T02440139 $





000
SAUS41 KLWX 201959 COR
MTRDMH
METAR KDMH 201954Z AUTO 26/14 A3012 RMK AO1 SLP200 T02610139





000
SAUS41 KLWX 201955
MTRNAK
METAR KNAK 201954Z AUTO 18005KT 10SM CLR 25/14 A3012 RMK AO2 SLP201
T02500144 $





000
SAUS41 KLWX 201900
MTRRYT
METAR KRYT 201853Z AUTO VRB04KT 10SM CLR 24/14 A3013 RMK AO2 SLP193
T02440144 $





000
SAUS41 KLWX 201859 COR
MTRDMH
METAR KDMH 201854Z AUTO 26/14 A3014 RMK AO1 SLP207 T02560139





000
SAUS41 KLWX 201855
MTRNAK
METAR KNAK 201854Z AUTO 18008KT 10SM CLR 25/14 A3015 RMK AO2 SLP210
T02500144 $





000
SAUS41 KLWX 201800
MTRRYT
METAR KRYT 201753Z AUTO 00000KT 10SM CLR 24/14 A3015 RMK AO2 SLP199
T02390139 10239 20172 58030 $





000
SAUS41 KLWX 201759 COR
MTRDMH
METAR KDMH 201754Z AUTO 24/15 A3017 RMK AO1 SLP216 T02440150 10250
20172 58028





000
SAUS41 KLWX 201755
MTRNAK
METAR KNAK 201754Z AUTO 12007KT 10SM CLR 24/16 A3017 RMK AO2 SLP219
T02390161 10239 20200 58021 $





000
SAUS41 KLWX 201700
MTRRYT
METAR KRYT 201653Z AUTO 24004KT 10SM CLR 22/14 A3018 RMK AO2 SLP212
T02220144 $





000
SAUS41 KLWX 201659 COR
MTRDMH
METAR KDMH 201654Z AUTO 24/16 A3021 RMK AO1 SLP230 T02440161





000
SAUS41 KLWX 201656
MTRNAK
METAR KNAK 201654Z AUTO 17006KT 10SM FEW034 23/16 A3021 RMK AO2
SLP232 T02330156 $





000
SAUS41 KLWX 201600
MTRRYT
METAR KRYT 201553Z AUTO 00000KT 10SM CLR 21/14 A3021 RMK AO2 SLP223
T02110144 $





000
SAUS41 KLWX 201559 COR
MTRDMH
METAR KDMH 201554Z AUTO 23/16 A3023 RMK AO1 SLP237 T02330161





000
SAUS41 KLWX 201555
MTRNAK
METAR KNAK 201554Z AUTO 14010KT 10SM BKN030 BKN036 22/16 A3023 RMK
AO2 SLP239 T02220161 $





000
SAUS41 KLWX 201551
MTRNAK
SPECI KNAK 201549Z AUTO 14010KT 10SM BKN030 OVC036 22/16 A3023 RMK
AO2 $





000
SAUS41 KLWX 201502
MTRNAK
SPECI KNAK 201501Z AUTO 12009KT 10SM BKN027 OVC033 22/17 A3025 RMK
AO2 T02170172 $





000
SAUS41 KLWX 201500
MTRRYT
METAR KRYT 201453Z AUTO 00000KT 10SM BKN085 20/15 A3024 RMK AO2
SLP234 T02000150 58003 $





000
SAUS41 KLWX 201459 COR
MTRDMH
METAR KDMH 201454Z AUTO 22/17 A3025 RMK AO1 SLP244 T02220167 58003





000
SAUS41 KLWX 201455
MTRNAK
METAR KNAK 201454Z AUTO 12007KT 10SM SCT027 BKN033 22/17 A3025 RMK
AO2 SLP246 T02170172 58002 $





000
SAUS41 KLWX 201427
MTRNAK
SPECI KNAK 201426Z AUTO 14007KT 10SM BKN030 22/17 A3026 RMK AO2
T02170172 $





000
SAUS41 KLWX 201400
MTRRYT
METAR KRYT 201353Z AUTO VRB05KT 10SM CLR 19/14 A3025 RMK AO2 SLP237
T01890144 $





000
SAUS41 KLWX 201359 COR
MTRDMH
METAR KDMH 201354Z AUTO 21/16 A3027 RMK AO1 SLP250 T02060161





000
SAUS41 KLWX 201355
MTRNAK
METAR KNAK 201354Z AUTO 13009KT 10SM OVC028 21/17 A3026 RMK AO2
SLP249 T02110167 $





000
SAUS41 KLWX 201333
MTRNAK
SPECI KNAK 201332Z AUTO 13009KT 10SM BKN028 21/17 A3026 RMK AO2
T02110172 $





000
SAUS41 KLWX 201300
MTRRYT
METAR KRYT 201253Z AUTO 24003KT 10SM FEW013 SCT055 17/14 A3025 RMK
AO2 SLP239 T01720139 $





000
SAUS41 KLWX 201259 COR
MTRDMH
METAR KDMH 201254Z AUTO 19/16 A3027 RMK AO1 SLP249 T01940156





000
SAUS41 KLWX 201255
MTRNAK
METAR KNAK 201254Z AUTO 13008KT 9SM CLR 21/17 A3025 RMK AO2 SLP247
T02060172 $





000
SAUS41 KLWX 201246
MTRRYT
SPECI KRYT 201239Z AUTO VRB03KT 10SM SCT013 BKN049 17/14 A3025 RMK
AO2 $





000
SAUS41 KLWX 201200
MTRRYT
METAR KRYT 201153Z AUTO 00000KT 9SM BKN015 OVC050 17/14 A3025 RMK
AO2 SLP238 T01720144 10172 20167 50001 $





000
SAUS41 KLWX 201159 COR
MTRDMH
METAR KDMH 201154Z AUTO 17/15 A3026 RMK AO1 SLP248 T01720150 10183
20172 58002





000
SAUS41 KLWX 201155
MTRNAK
METAR KNAK 201154Z AUTO 12009KT 9SM FEW029 20/17 A3026 RMK AO2
SLP248 T02000167 10200 20178 50002 $





000
SAUS41 KLWX 201151
MTRNAK
SPECI KNAK 201150Z AUTO 11007KT 9SM FEW029 20/17 A3026 RMK AO2 $





000
SAUS41 KLWX 201150
MTRRYT
SPECI KRYT 201143Z AUTO 00000KT 9SM BKN015 BKN019 OVC050 17/14 A3025
RMK AO2 $





000
SAUS41 KLWX 201113
MTRNAK
SPECI KNAK 201111Z AUTO 09005KT 9SM BKN029 BKN090 19/17 A3026 RMK
AO2 T01940167 $





000
SAUS41 KLWX 201100
MTRRYT
METAR KRYT 201053Z AUTO 00000KT 9SM OVC011 17/14 A3025 RMK AO2
SLP238 T01670144 $





000
SAUS41 KLWX 201059 COR
MTRDMH
METAR KDMH 201054Z AUTO 17/15 A3027 RMK AO1 SLP249 T01720150





000
SAUS41 KLWX 201055
MTRNAK
METAR KNAK 201054Z AUTO 11006KT 10SM FEW029 SCT090 20/17 A3026 RMK
AO2 SLP249 T02000167 $





000
SAUS41 KLWX 201000
MTRRYT
METAR KRYT 200953Z AUTO VRB03KT 10SM BKN013 OVC055 17/14 A3025 RMK
AO2 SLP236 T01670144 $





000
SAUS41 KLWX 200959 COR
MTRDMH
METAR KDMH 200954Z AUTO 17/15 A3027 RMK AO1 SLP250 T01720150





000
SAUS41 KLWX 200956
MTRNAK
METAR KNAK 200954Z AUTO 13008KT 10SM BKN090 20/17 A3025 RMK AO2
SLP246 T02000167 $





000
SAUS41 KLWX 200900
MTRRYT
METAR KRYT 200853Z AUTO 00000KT 10SM BKN013 BKN018 OVC055 17/14
A3024 RMK AO2 SLP235 T01670144 58006 $





000
SAUS41 KLWX 200859 COR
MTRDMH
METAR KDMH 200854Z AUTO 18/15 A3027 RMK AO1 SLP250 T01780150 56005





000
SAUS41 KLWX 200855
MTRNAK
METAR KNAK 200854Z AUTO 14007KT 10SM 20/16 A3026 RMK AO2 SLP247
T02000161 56007 $





000
SAUS41 KLWX 200800
MTRRYT
METAR KRYT 200753Z AUTO 00000KT 9SM OVC011 17/14 A3025 RMK AO2
SLP237 T01670144 $





000
SAUS41 KLWX 200759 COR
MTRDMH
METAR KDMH 200754Z AUTO 18/15 A3027 RMK AO1 SLP250 T01830150





000
SAUS41 KLWX 200755
MTRNAK
METAR KNAK 200754Z AUTO 18/16 A3026 RMK AO2 SLP248 T01830161 $





000
SAUS41 KLWX 200732
MTRRYT
SPECI KRYT 200725Z AUTO 00000KT 8SM OVC011 17/14 A3025 RMK AO2 CIG
008V015 $





000
SAUS41 KLWX 200700
MTRRYT
METAR KRYT 200653Z AUTO 00000KT 9SM OVC009 17/14 A3026 RMK AO2
SLP241 T01670139 $





000
SAUS41 KLWX 200659 COR
MTRDMH
METAR KDMH 200654Z AUTO 18/15 A3028 RMK AO1 SLP253 T01830150





000
SAUS41 KLWX 200656
MTRNAK
METAR KNAK 200654Z AUTO 12009KT 9SM 19/17 A3026 RMK AO2 SLP248
T01890167 $





000
SAUS41 KLWX 200639
MTRRYT
SPECI KRYT 200633Z AUTO 00000KT 9SM OVC011 17/14 A3026 RMK AO2 CIG
008V014 $





000
SAUS41 KLWX 200600
MTRRYT
METAR KRYT 200553Z AUTO 00000KT 9SM OVC009 17/14 A3027 RMK AO2
SLP246 T01670139 10178 20161 58005 $





000
SAUS41 KLWX 200559 COR
MTRDMH
METAR KDMH 200554Z AUTO 18/15 A3029 RMK AO1 SLP256 T01780150 10206
20178 58011





000
SAUS41 KLWX 200556
MTRNAK
METAR KNAK 200554Z AUTO 10006KT 9SM 18/16 A3028 RMK AO2 SLP255
T01830161 10200 20183 56014 $





000
SAUS41 KLWX 200549
MTRRYT
SPECI KRYT 200542Z AUTO 00000KT 9SM OVC009 16/14 A3027 RMK AO2 $





000
SAUS41 KLWX 200500 COR
MTRDMH
METAR KDMH 200454Z AUTO 18/14 A3031 RMK AO1 SLP263 T01780144
402330150





000
SAUS41 KLWX 200500
MTRRYT
METAR KRYT 200453Z AUTO 00000KT 10SM OVC011 17/14 A3028 RMK AO2
SLP248 T01670139 402110083 $





000
SAUS41 KLWX 200455
MTRNAK
METAR KNAK 200454Z AUTO 07004KT 9SM BKN039 18/16 A3029 RMK AO2
SLP259 T01830156 402280161 $





000
SAUS41 KLWX 200400
MTRRYT
METAR KRYT 200353Z AUTO 00000KT 10SM OVC013 17/13 A3029 RMK AO2
SLP251 T01670133 $





000
SAUS41 KLWX 200359 COR
MTRDMH
METAR KDMH 200354Z AUTO 18/14 A3031 RMK AO1 SLP265 T01780144





000
SAUS41 KLWX 200355
MTRNAK
METAR KNAK 200354Z AUTO 11008KT 9SM BKN090 19/16 A3030 RMK AO2
SLP261 T01890156 $





000
SAUS41 KLWX 200346
MTRRYT
SPECI KRYT 200339Z AUTO 00000KT 10SM OVC013 17/13 A3029 RMK AO2 $





000
SAUS41 KLWX 200346
MTRRYT
SPECI KRYT 200339Z AUTO 00000KT 10SM OVC013 17/13 A3029 RMK AO2 $





000
SAUS41 KLWX 200300 COR
MTRDMH
METAR KDMH 200254Z AUTO 18/14 A3032 RMK AO1 SLP267 T01830144 51010





000
SAUS41 KLWX 200300
MTRRYT
METAR KRYT 200253Z AUTO 00000KT 10SM OVC017 17/13 A3029 RMK AO2
SLP253 T01670133 50001 $





000
SAUS41 KLWX 200255
MTRNAK
METAR KNAK 200254Z AUTO 11006KT 10SM FEW090 19/15 A3032 RMK AO2
SLP269 T01890150 51014 $





000
SAUS41 KLWX 200200
MTRRYT
METAR KRYT 200153Z AUTO 00000KT 10SM OVC024 17/13 A3029 RMK AO2
SLP254 T01720133 $





000
SAUS41 KLWX 200159 COR
MTRDMH
METAR KDMH 200154Z AUTO 19/14 A3032 RMK AO1 SLP266 T01940144





000
SAUS41 KLWX 200155
MTRNAK
METAR KNAK 200154Z AUTO 11008KT 10SM SCT032 BKN055 19/16 A3031 RMK
AO2 SLP267 T01940156 $





000
SAUS41 KLWX 200138
MTRRYT
SPECI KRYT 200131Z AUTO 00000KT 10SM BKN027 OVC035 17/13 A3029 RMK
AO2 $





000
SAUS41 KLWX 200100
MTRRYT
METAR KRYT 200053Z AUTO 00000KT 10SM BKN030 OVC055 17/13 A3029 RMK
AO2 SLP253 T01720133 $





000
SAUS41 KLWX 200059 COR
MTRDMH
METAR KDMH 200054Z AUTO 20/14 A3031 RMK AO1 SLP264 T02000139





000
SAUS41 KLWX 200055
MTRNAK
METAR KNAK 200054Z AUTO 10010KT 10SM FEW025 SCT050 19/15 A3030 RMK
AO2 SLP263 T01940150 $





000
SAUS41 KLWX 200000
MTRRYT
METAR KRYT 192353Z AUTO 00000KT 10SM BKN040 OVC060 17/12 A3027 RMK
AO2 SLP250 T01720122 10211 20172 53008 $





000
SAUS41 KLWX 192359 COR
MTRDMH
METAR KDMH 192354Z AUTO 21/13 A3029 RMK AO1 SLP256 T02060133 10233
20206 53007





000
SAUS41 KLWX 192355
MTRNAK
METAR KNAK 192354Z AUTO 10013KT 10SM CLR 20/15 A3028 RMK AO2 SLP255
T02000150 10228 20200 53007 $





000
SAUS41 KLWX 192300
MTRRYT
METAR KRYT 192253Z AUTO 00000KT 10SM BKN060 OVC085 18/12 A3026 RMK
AO2 SLP245 T01780122 $





000
SAUS41 KLWX 192259
MTRNAK
METAR KNAK 192254Z AUTO 10011KT 10SM FEW055 SCT070 OVC085 21/14
A3027 RMK AO2 SLP252 T02110144 $





000
SAUS41 KLWX 192259 COR
MTRDMH
METAR KDMH 192254Z AUTO 22/12 A3028 RMK AO1 SLP253 T02170122





000
SAUS41 KLWX 192200
MTRRYT
METAR KRYT 192153Z AUTO 00000KT 10SM BKN060 BKN085 19/12 A3025 RMK
AO2 SLP241 T01940122 $





000
SAUS41 KLWX 192159 COR
MTRDMH
METAR KDMH 192154Z AUTO 22/14 A3027 RMK AO1 SLP251 T02170139





000
SAUS41 KLWX 192155
MTRNAK
METAR KNAK 192154Z AUTO 09010KT 10SM 22/14 A3026 RMK AO2 SLP249
T02170144 $





000
SAUS41 KLWX 192100
MTRRYT
METAR KRYT 192053Z AUTO 00000KT 10SM SCT070 BKN090 21/12 A3024 RMK
AO2 SLP239 T02110122 58007 $





000
SAUS41 KLWX 192059 COR
MTRDMH
METAR KDMH 192054Z AUTO 23/13 A3027 RMK AO1 SLP249 T02280133 55003





000
SAUS41 KLWX 192055
MTRNAK
METAR KNAK 192054Z AUTO 08009KT 10SM 22/14 A3026 RMK AO2 SLP248
T02170144 55001 $





000
SAUS41 KLWX 192000
MTRRYT
METAR KRYT 191953Z AUTO 00000KT 10SM BKN060 21/11 A3025 RMK AO2
SLP242 T02060111 $





000
SAUS41 KLWX 191959 COR
MTRDMH
METAR KDMH 191954Z AUTO 23/13 A3027 RMK AO1 SLP248 T02280128





000
SAUS41 KLWX 191956
MTRNAK
METAR KNAK 191954Z AUTO 04006KT 10SM BKN090 23/14 A3026 RMK AO2
SLP247 T02280139





000
SAUS41 KLWX 191900
MTRRYT
METAR KRYT 191853Z AUTO VRB03KT 10SM SCT038 SCT046 OVC060 21/12
A3026 RMK AO2 SLP244 T02060117 $





000
SAUS41 KLWX 191859 COR
MTRDMH
METAR KDMH 191854Z AUTO 23/13 A3027 RMK AO1 SLP250 T02280133





000
SAUS41 KLWX 191855
MTRNAK
METAR KNAK 191854Z AUTO 04005KT 10SM CLR 22/14 A3026 RMK AO2 SLP248
T02220144 $





000
SAUS41 KLWX 191800
MTRRYT
METAR KRYT 191753Z AUTO VRB04KT 10SM CLR 19/11 A3027 RMK AO2 SLP246
T01940106 10200 20100 58004 $





000
SAUS41 KLWX 191759 COR
MTRDMH
METAR KDMH 191754Z AUTO 22/13 A3028 RMK AO1 SLP252 T02170133 10222
20150 58001





000
SAUS41 KLWX 191755
MTRNAK
METAR KNAK 191754Z AUTO VRB03KT 10SM FEW030 22/14 A3026 RMK AO2
SLP249 T02220144 10222 20167 58003





000
SAUS41 KLWX 191700
MTRRYT
METAR KRYT 191653Z AUTO 02007KT 10SM SCT065 18/10 A3027 RMK AO2
SLP249 T01830100 $





000
SAUS41 KLWX 191659 COR
MTRDMH
METAR KDMH 191654Z AUTO 21/13 A3028 RMK AO1 SLP254 T02060128





000
SAUS41 KLWX 191656
MTRNAK
METAR KNAK 191654Z AUTO VRB03KT 10SM SCT026 21/14 A3028 RMK AO2
SLP254 T02060144 $





000
SAUS41 KLWX 191649
MTRNAK
SPECI KNAK 191647Z AUTO 10004KT 10SM SCT026 21/14 A3028 RMK AO2
T02060139 $





000
SAUS41 KLWX 191638
MTRNAK
SPECI KNAK 191636Z AUTO 06006KT 10SM BKN025 21/14 A3027 RMK AO2
T02060139 $





000
SAUS41 KLWX 191626
MTRNAK
SPECI KNAK 191624Z AUTO VRB06KT 10SM SCT024 20/14 A3027 RMK AO2
T02000139 $





000
SAUS41 KLWX 191600
MTRRYT
METAR KRYT 191553Z AUTO VRB03KT 10SM BKN075 17/10 A3028 RMK AO2
SLP253 T01720100 $





000
SAUS41 KLWX 191559 COR
MTRDMH
METAR KDMH 191554Z AUTO 21/12 A3029 RMK AO1 SLP256 T02060122





000
SAUS41 KLWX 191555
MTRNAK
METAR KNAK 191554Z AUTO VRB03KT 10SM BKN024 19/14 A3028 RMK AO2
SLP254 T01940139





000
SAUS41 KLWX 191531
MTRNAK
SPECI KNAK 191530Z AUTO 08006KT 10SM SCT023 19/13 A3027 RMK AO2
T01890133





000
SAUS41 KLWX 191509 COR
MTRNAK
SPECI KNAK 191505Z AUTO 08006KT 10SM BKN023 18/13 A3027 RMK AO2
T01830128





000
SAUS41 KLWX 191507 COR
MTRNAK
SPECI KNAK 191505Z AUTO 08006KT 10SM BKN023 18/13 A3027 RMK AO2
T01830128





000
SAUS41 KLWX 191500
MTRRYT
METAR KRYT 191453Z AUTO VRB04KT 10SM FEW075 16/09 A3028 RMK AO2
SLP252 T01560094 51008 $





000
SAUS41 KLWX 191459 COR
MTRDMH
METAR KDMH 191454Z AUTO 19/12 A3028 RMK AO1 SLP253 T01890117 51011





000
SAUS41 KLWX 191455
MTRNAK
METAR KNAK 191454Z AUTO 06007KT 10SM SCT023 18/13 A3027 RMK AO2
SLP253 T01830128 51014





000
SAUS41 KLWX 191400
MTRRYT
METAR KRYT 191353Z AUTO 05005KT 10SM CLR 14/09 A3027 RMK AO2 SLP251
T01440089 $





000
SAUS41 KLWX 191359 COR
MTRDMH
METAR KDMH 191354Z AUTO 17/11 A3028 RMK AO1 SLP252 T01720111





000
SAUS41 KLWX 191355
MTRNAK
METAR KNAK 191354Z AUTO 07008KT 10SM CLR 17/12 A3026 RMK AO2 SLP250
T01720122





000
SAUS41 KLWX 191300
MTRRYT
METAR KRYT 191253Z AUTO VRB04KT 10SM CLR 13/09 A3027 RMK AO2 SLP249
T01330089 $





000
SAUS41 KLWX 191259 COR
MTRDMH
METAR KDMH 191254Z AUTO 17/09 A3027 RMK AO1 SLP250 T01670094





000
SAUS41 KLWX 191255
MTRNAK
METAR KNAK 191254Z AUTO 04007KT 10SM FEW100 17/12 A3025 RMK AO2
SLP246 T01720117





000
SAUS41 KLWX 191200
MTRRYT
METAR KRYT 191153Z AUTO 00000KT 6SM BR BKN080 10/08 A3025 RMK AO2
SLP246 T01000083 10106 20083 53020 $





000
SAUS41 KLWX 191159 COR
MTRDMH
METAR KDMH 191154Z AUTO 15/10 A3025 RMK AO1 SLP242 70001 T01500100
10178 20150 53021





000
SAUS41 KLWX 191155
MTRNAK
METAR KNAK 191154Z AUTO 05007KT 10SM BKN100 17/12 A3023 RMK AO2
SLP239 70020 T01670117 10183 20161 53023





000
SAUS41 KLWX 191100
MTRRYT
METAR KRYT 191053Z AUTO 21003KT 7SM CLR 09/08 A3023 RMK AO2 SLP236
T00890078 $





000
SAUS41 KLWX 191059 COR
MTRDMH
METAR KDMH 191054Z AUTO 15/09 A3023 RMK AO1 SLP236 T01500094





000
SAUS41 KLWX 191055
MTRNAK
METAR KNAK 191054Z AUTO 03004KT 10SM SCT100 16/12 A3021 RMK AO2
SLP232 T01610117 $





000
SAUS41 KLWX 191000
MTRRYT
METAR KRYT 190953Z AUTO 00000KT 10SM BKN080 09/08 A3021 RMK AO2
SLP228 T00940078 $





000
SAUS41 KLWX 190959 COR
MTRDMH
METAR KDMH 190954Z AUTO 16/09 A3020 RMK AO1 SLP226 T01560094





000
SAUS41 KLWX 190955
MTRNAK
METAR KNAK 190954Z AUTO 05008KT 10SM SCT100 17/12 A3018 RMK AO2
SLP222 T01670122 $





000
SAUS41 KLWX 190900
MTRRYT
METAR KRYT 190853Z AUTO 00000KT 10SM CLR 09/08 A3019 RMK AO2 SLP220
T00940078 53015 $





000
SAUS41 KLWX 190859 COR
MTRDMH
METAR KDMH 190854Z AUTO 16/10 A3019 RMK AO1 SLP221 T01610100 53018





000
SAUS41 KLWX 190855
MTRNAK
METAR KNAK 190854Z AUTO 02005KT 10SM CLR 17/12 A3016 RMK AO2 SLP216
T01720122 53017 $





000
SAUS41 KLWX 190800
MTRRYT
METAR KRYT 190753Z AUTO 00000KT 10SM FEW080 10/08 A3017 RMK AO2
SLP211 T01000078 $





000
SAUS41 KLWX 190759 COR
MTRDMH
METAR KDMH 190754Z AUTO 17/10 A3016 RMK AO1 SLP212 T01670100





000
SAUS41 KLWX 190755
MTRNAK
METAR KNAK 190754Z AUTO 01007KT 5SM BR CLR 18/16 A3014 RMK AO2
SLP206 T01780156 $





000
SAUS41 KLWX 190700
MTRRYT
METAR KRYT 190653Z AUTO 00000KT 10SM CLR 09/08 A3016 RMK AO2 SLP211
T00940078 $





000
SAUS41 KLWX 190659 COR
MTRDMH
METAR KDMH 190654Z AUTO 17/12 A3014 RMK AO1 SLP206 T01720122





000
SAUS41 KLWX 190655
MTRNAK
METAR KNAK 190654Z AUTO 35005KT 5SM BR CLR 18/16 A3012 RMK AO2
SLP202 T01780161 $





000
SAUS41 KLWX 190600
MTRRYT
METAR KRYT 190553Z AUTO 00000KT 10SM FEW085 10/08 A3015 RMK AO2
SLP205 T01000083 10144 20094 53011 $





000
SAUS41 KLWX 190559 COR
MTRDMH
METAR KDMH 190554Z AUTO 17/14 A3013 RMK AO1 SLP203 T01720139 10206
20172 51009





000
SAUS41 KLWX 190556
MTRNAK
METAR KNAK 190554Z AUTO 34003KT 5SM BR CLR 18/17 A3011 RMK AO2
SLP199 T01830172 10200 20167 53006 $





000
SAUS41 KLWX 190500
MTRRYT
METAR KRYT 190453Z AUTO 00000KT 10SM CLR 10/08 A3013 RMK AO2 SLP200
T01000083 402280100 $





000
SAUS41 KLWX 190459 COR
MTRDMH
METAR KDMH 190454Z AUTO 17/14 A3012 RMK AO1 SLP199 T01720144
402280167





000
SAUS41 KLWX 190456
MTRNAK
METAR KNAK 190454Z AUTO 00000KT 5SM BR CLR 18/17 A3011 RMK AO2
SLP197 T01780167 402330161 $





000
SAUS41 KLWX 190400
MTRRYT
METAR KRYT 190353Z AUTO 00000KT 10SM CLR 11/09 A3012 RMK AO2 SLP197
T01060089 $





000
SAUS41 KLWX 190359 COR
MTRDMH
METAR KDMH 190354Z AUTO 18/15 A3012 RMK AO1 SLP198 T01830150





000
SAUS41 KLWX 190355
MTRNAK
METAR KNAK 190354Z AUTO 34003KT 6SM BR CLR 18/17 A3010 RMK AO2
SLP195 T01830172





000
SAUS41 KLWX 190300
MTRRYT
METAR KRYT 190253Z AUTO 00000KT 10SM CLR 11/09 A3011 RMK AO2 SLP194
T01110094 51017 $





000
SAUS41 KLWX 190300 COR
MTRDMH
METAR KDMH 190254Z AUTO 19/16 A3010 RMK AO1 SLP193 T01890156 51020





000
SAUS41 KLWX 190255
MTRNAK
METAR KNAK 190254Z AUTO 00000KT 6SM BR CLR 18/17 A3010 RMK AO2
SLP193 T01830172 51020





    US Dept of Commerce
    National Oceanic and Atmospheric Administration
    National Weather Service
    1325 East West Highway
    Silver Spring, MD 20910
    Page Author: NWS Internet Services Team
Disclaimer
Information Quality
Credits
Glossary
Privacy Policy
Freedom of Information Act (FOIA)
About Us
Career Opportunities